sensor_id;sensor_type;location;lat;lon;timestamp;pressure;altitude;pressure_sealevel;temperature;humidity
69306;BME280;56427;51.580;4.656;2023-06-14T00:00:10;101434.75;;;19.18;74.38
69306;BME280;56427;51.580;4.656;2023-06-14T00:02:38;101443.34;;;18.96;74.63
69306;BME280;56427;51.580;4.656;2023-06-14T00:05:05;101442.41;;;18.88;74.69
69306;BME280;56427;51.580;4.656;2023-06-14T00:07:35;101453.41;;;18.84;74.74
69306;BME280;56427;51.580;4.656;2023-06-14T00:10:02;101442.91;;;18.84;74.58
69306;BME280;56427;51.580;4.656;2023-06-14T00:12:28;101444.88;;;18.65;75.13
69306;BME280;56427;51.580;4.656;2023-06-14T00:14:54;101447.97;;;18.69;74.58
69306;BME280;56427;51.580;4.656;2023-06-14T00:17:19;101447.00;;;18.62;74.20
69306;BME280;56427;51.580;4.656;2023-06-14T00:19:44;101454.06;;;18.61;74.00
69306;BME280;56427;51.580;4.656;2023-06-14T00:22:11;101443.22;;;18.56;74.00
69306;BME280;56427;51.580;4.656;2023-06-14T00:24:37;101443.06;;;18.49;74.11
69306;BME280;56427;51.580;4.656;2023-06-14T00:27:03;101453.09;;;18.62;72.61
69306;BME280;56427;51.580;4.656;2023-06-14T00:29:28;101446.50;;;18.50;72.51
69306;BME280;56427;51.580;4.656;2023-06-14T00:31:53;101447.66;;;18.55;71.71
69306;BME280;56427;51.580;4.656;2023-06-14T00:34:19;101444.53;;;18.52;71.10
69306;BME280;56427;51.580;4.656;2023-06-14T00:36:44;101448.66;;;18.54;70.79
69306;BME280;56427;51.580;4.656;2023-06-14T00:39:10;101439.63;;;18.49;70.64
69306;BME280;56427;51.580;4.656;2023-06-14T00:41:35;101445.22;;;18.46;70.62
69306;BME280;56427;51.580;4.656;2023-06-14T00:44:05;101439.94;;;18.46;69.26
69306;BME280;56427;51.580;4.656;2023-06-14T00:46:30;101443.06;;;18.57;68.91
69306;BME280;56427;51.580;4.656;2023-06-14T00:48:56;101449.13;;;18.58;67.81
69306;BME280;56427;51.580;4.656;2023-06-14T00:51:23;101445.84;;;18.56;67.06
69306;BME280;56427;51.580;4.656;2023-06-14T00:53:51;101451.94;;;18.48;67.27
69306;BME280;56427;51.580;4.656;2023-06-14T00:56:16;101446.34;;;18.43;66.09
69306;BME280;56427;51.580;4.656;2023-06-14T00:58:46;101445.22;;;18.54;65.23
69306;BME280;56427;51.580;4.656;2023-06-14T01:01:11;101446.50;;;18.50;64.67
69306;BME280;56427;51.580;4.656;2023-06-14T01:03:37;101423.88;;;18.41;63.90
69306;BME280;56427;51.580;4.656;2023-06-14T01:06:15;101445.53;;;18.51;64.17
69306;BME280;56427;51.580;4.656;2023-06-14T01:11:50;101438.78;;;18.40;64.60
69306;BME280;56427;51.580;4.656;2023-06-14T01:14:20;101439.28;;;18.44;64.57
69306;BME280;56427;51.580;4.656;2023-06-14T01:16:47;101445.03;;;18.47;64.56
69306;BME280;56427;51.580;4.656;2023-06-14T01:19:14;101447.84;;;18.46;64.27
69306;BME280;56427;51.580;4.656;2023-06-14T01:21:40;101450.94;;;18.49;64.49
69306;BME280;56427;51.580;4.656;2023-06-14T01:24:07;101449.97;;;18.34;65.17
69306;BME280;56427;51.580;4.656;2023-06-14T01:26:34;101439.47;;;18.26;66.28
69306;BME280;56427;51.580;4.656;2023-06-14T01:29:03;101441.41;;;18.24;65.68
69306;BME280;56427;51.580;4.656;2023-06-14T01:31:29;101443.72;;;18.27;66.12
69306;BME280;56427;51.580;4.656;2023-06-14T01:34:05;101437.16;;;18.23;66.06
69306;BME280;56427;51.580;4.656;2023-06-14T01:36:31;101445.38;;;18.19;66.65
69306;BME280;56427;51.580;4.656;2023-06-14T01:38:57;101440.25;;;18.10;66.64
69306;BME280;56427;51.580;4.656;2023-06-14T01:41:24;101443.56;;;18.20;66.85
69306;BME280;56427;51.580;4.656;2023-06-14T01:43:50;101442.25;;;18.16;67.23
69306;BME280;56427;51.580;4.656;2023-06-14T01:46:16;101440.41;;;18.08;67.37
69306;BME280;56427;51.580;4.656;2023-06-14T01:48:42;101441.88;;;18.02;68.09
69306;BME280;56427;51.580;4.656;2023-06-14T01:51:08;101438.75;;;17.99;68.67
69306;BME280;56427;51.580;4.656;2023-06-14T01:53:33;101446.41;;;17.84;68.76
69306;BME280;56427;51.580;4.656;2023-06-14T01:55:59;101446.72;;;17.81;69.11
69306;BME280;56427;51.580;4.656;2023-06-14T01:58:25;101445.91;;;17.80;69.59
69306;BME280;56427;51.580;4.656;2023-06-14T02:00:51;101441.28;;;17.74;70.07
69306;BME280;56427;51.580;4.656;2023-06-14T02:03:20;101442.94;;;17.75;70.58
69306;BME280;56427;51.580;4.656;2023-06-14T02:05:46;101442.13;;;17.66;71.20
69306;BME280;56427;51.580;4.656;2023-06-14T02:08:11;101448.19;;;17.75;71.02
69306;BME280;56427;51.580;4.656;2023-06-14T02:10:36;101444.22;;;17.63;71.60
69306;BME280;56427;51.580;4.656;2023-06-14T02:13:02;101444.72;;;17.58;72.21
69306;BME280;56427;51.580;4.656;2023-06-14T02:15:27;101446.66;;;17.56;72.88
69306;BME280;56427;51.580;4.656;2023-06-14T02:17:59;101442.25;;;17.57;73.23
69306;BME280;56427;51.580;4.656;2023-06-14T02:20:24;101444.28;;;17.37;73.90
69306;BME280;56427;51.580;4.656;2023-06-14T02:22:49;101437.22;;;17.29;74.78
69306;BME280;56427;51.580;4.656;2023-06-14T02:25:15;101441.34;;;17.40;74.29
69306;BME280;56427;51.580;4.656;2023-06-14T02:27:40;101445.53;;;17.59;74.57
69306;BME280;56427;51.580;4.656;2023-06-14T02:30:07;101451.44;;;17.26;76.13
69306;BME280;56427;51.580;4.656;2023-06-14T02:32:32;101448.16;;;17.24;75.70
69306;BME280;56427;51.580;4.656;2023-06-14T02:35:01;101451.56;;;17.17;76.55
69306;BME280;56427;51.580;4.656;2023-06-14T02:37:26;101452.75;;;17.22;76.70
69306;BME280;56427;51.580;4.656;2023-06-14T02:39:51;101457.00;;;17.23;76.44
69306;BME280;56427;51.580;4.656;2023-06-14T02:42:17;101455.06;;;17.25;76.94
69306;BME280;56427;51.580;4.656;2023-06-14T02:44:42;101453.22;;;17.18;77.44
69306;BME280;56427;51.580;4.656;2023-06-14T02:47:09;101451.47;;;17.00;78.99
69306;BME280;56427;51.580;4.656;2023-06-14T02:49:34;101451.13;;;16.95;78.99
69306;BME280;56427;51.580;4.656;2023-06-14T02:51:59;101451.63;;;16.99;79.40
69306;BME280;56427;51.580;4.656;2023-06-14T02:54:25;101455.41;;;16.78;80.86
69306;BME280;56427;51.580;4.656;2023-06-14T02:56:50;101452.88;;;16.86;80.73
69306;BME280;56427;51.580;4.656;2023-06-14T02:59:16;101454.19;;;16.72;81.91
69306;BME280;56427;51.580;4.656;2023-06-14T03:01:42;101460.94;;;16.75;82.20
69306;BME280;56427;51.580;4.656;2023-06-14T03:04:08;101457.97;;;16.70;83.73
69306;BME280;56427;51.580;4.656;2023-06-14T03:06:34;101464.34;;;16.49;83.74
69306;BME280;56427;51.580;4.656;2023-06-14T03:09:00;101473.25;;;16.56;84.15
69306;BME280;56427;51.580;4.656;2023-06-14T03:11:30;101468.19;;;16.55;84.60
69306;BME280;56427;51.580;4.656;2023-06-14T03:13:56;101466.44;;;16.46;85.02
69306;BME280;56427;51.580;4.656;2023-06-14T03:16:24;101475.81;;;16.48;85.50
69306;BME280;56427;51.580;4.656;2023-06-14T03:18:53;101480.44;;;16.54;85.06
69306;BME280;56427;51.580;4.656;2023-06-14T03:21:19;101481.56;;;16.52;85.28
69306;BME280;56427;51.580;4.656;2023-06-14T03:23:48;101480.06;;;16.49;85.61
69306;BME280;56427;51.580;4.656;2023-06-14T03:26:14;101474.25;;;16.37;84.92
69306;BME280;56427;51.580;4.656;2023-06-14T03:28:46;101478.22;;;16.24;86.90
69306;BME280;56427;51.580;4.656;2023-06-14T03:31:12;101470.13;;;16.35;86.73
69306;BME280;56427;51.580;4.656;2023-06-14T03:33:38;101474.38;;;16.54;85.28
69306;BME280;56427;51.580;4.656;2023-06-14T03:36:05;101480.91;;;16.50;85.98
69306;BME280;56427;51.580;4.656;2023-06-14T03:38:30;101483.75;;;16.56;85.42
69306;BME280;56427;51.580;4.656;2023-06-14T03:40:56;101482.25;;;16.54;86.26
69306;BME280;56427;51.580;4.656;2023-06-14T03:43:22;101476.47;;;16.50;85.95
69306;BME280;56427;51.580;4.656;2023-06-14T03:45:48;101488.84;;;16.58;85.69
69306;BME280;56427;51.580;4.656;2023-06-14T03:48:13;101493.09;;;16.59;86.55
69306;BME280;56427;51.580;4.656;2023-06-14T03:50:39;101491.16;;;16.61;86.40
69306;BME280;56427;51.580;4.656;2023-06-14T03:53:05;101490.97;;;16.63;87.88
69306;BME280;56427;51.580;4.656;2023-06-14T03:55:30;101493.84;;;16.69;86.65
69306;BME280;56427;51.580;4.656;2023-06-14T03:57:56;101479.34;;;17.27;83.58
69306;BME280;56427;51.580;4.656;2023-06-14T04:00:22;101482.97;;;17.77;80.63
69306;BME280;56427;51.580;4.656;2023-06-14T04:02:48;101487.91;;;18.31;75.68
69306;BME280;56427;51.580;4.656;2023-06-14T04:05:14;101498.25;;;18.74;73.85
69306;BME280;56427;51.580;4.656;2023-06-14T04:07:44;101492.88;;;18.84;70.22
69306;BME280;56427;51.580;4.656;2023-06-14T04:10:11;101495.44;;;19.08;72.37
69306;BME280;56427;51.580;4.656;2023-06-14T04:12:38;101495.56;;;19.31;68.51
69306;BME280;56427;51.580;4.656;2023-06-14T04:15:03;101495.22;;;19.35;67.30
69306;BME280;56427;51.580;4.656;2023-06-14T04:17:32;101496.88;;;19.75;66.91
69306;BME280;56427;51.580;4.656;2023-06-14T04:20:01;101505.63;;;20.07;66.72
69306;BME280;56427;51.580;4.656;2023-06-14T04:22:28;101507.22;;;20.39;64.06
69306;BME280;56427;51.580;4.656;2023-06-14T04:24:54;101505.72;;;20.60;63.67
69306;BME280;56427;51.580;4.656;2023-06-14T04:27:25;101505.88;;;20.67;62.98
69306;BME280;56427;51.580;4.656;2023-06-14T04:29:55;101497.84;;;20.37;62.84
69306;BME280;56427;51.580;4.656;2023-06-14T04:32:25;101514.22;;;20.47;62.82
69306;BME280;56427;51.580;4.656;2023-06-14T04:34:53;101508.38;;;20.60;62.24
69306;BME280;56427;51.580;4.656;2023-06-14T04:37:23;101519.28;;;20.95;60.97
69306;BME280;56427;51.580;4.656;2023-06-14T04:39:48;101501.94;;;21.30;59.08
69306;BME280;56427;51.580;4.656;2023-06-14T04:42:15;101519.41;;;21.17;58.75
69306;BME280;56427;51.580;4.656;2023-06-14T04:44:42;101518.69;;;21.67;57.90
69306;BME280;56427;51.580;4.656;2023-06-14T04:47:12;101518.97;;;22.09;56.61
69306;BME280;56427;51.580;4.656;2023-06-14T04:49:38;101513.81;;;22.01;55.99
69306;BME280;56427;51.580;4.656;2023-06-14T04:52:05;101513.16;;;21.99;54.94
69306;BME280;56427;51.580;4.656;2023-06-14T04:54:36;101519.75;;;21.88;55.96
69306;BME280;56427;51.580;4.656;2023-06-14T04:57:06;101516.06;;;21.67;55.23
69306;BME280;56427;51.580;4.656;2023-06-14T04:59:31;101518.63;;;21.61;56.77
69306;BME280;56427;51.580;4.656;2023-06-14T05:01:58;101522.44;;;21.43;57.79
69306;BME280;56427;51.580;4.656;2023-06-14T05:04:25;101522.28;;;21.60;56.65
69306;BME280;56427;51.580;4.656;2023-06-14T05:06:52;101525.19;;;21.65;57.44
69306;BME280;56427;51.580;4.656;2023-06-14T05:09:20;101533.28;;;21.48;58.30
69306;BME280;56427;51.580;4.656;2023-06-14T05:11:45;101538.81;;;21.83;58.06
69306;BME280;56427;51.580;4.656;2023-06-14T05:14:13;101534.81;;;22.46;55.58
69306;BME280;56427;51.580;4.656;2023-06-14T05:16:39;101541.56;;;22.12;57.06
69306;BME280;56427;51.580;4.656;2023-06-14T05:19:05;101544.63;;;21.79;57.60
69306;BME280;56427;51.580;4.656;2023-06-14T05:21:31;101546.66;;;22.13;57.31
69306;BME280;56427;51.580;4.656;2023-06-14T05:24:00;101535.53;;;22.18;57.36
69306;BME280;56427;51.580;4.656;2023-06-14T05:26:26;101537.34;;;21.96;57.75
69306;BME280;56427;51.580;4.656;2023-06-14T05:28:56;101543.75;;;22.08;58.19
69306;BME280;56427;51.580;4.656;2023-06-14T05:31:25;101550.06;;;22.44;56.58
69306;BME280;56427;51.580;4.656;2023-06-14T05:33:52;101539.09;;;22.68;55.62
69306;BME280;56427;51.580;4.656;2023-06-14T05:36:17;101541.69;;;23.11;55.30
69306;BME280;56427;51.580;4.656;2023-06-14T05:38:44;101542.53;;;23.19;54.99
69306;BME280;56427;51.580;4.656;2023-06-14T05:41:10;101550.31;;;23.27;54.00
69306;BME280;56427;51.580;4.656;2023-06-14T05:43:35;101550.19;;;23.42;53.03
69306;BME280;56427;51.580;4.656;2023-06-14T05:46:01;101547.56;;;22.85;53.45
69306;BME280;56427;51.580;4.656;2023-06-14T05:48:26;101549.97;;;23.37;52.50
69306;BME280;56427;51.580;4.656;2023-06-14T05:50:51;101542.56;;;23.60;51.90
69306;BME280;56427;51.580;4.656;2023-06-14T05:53:17;101548.31;;;22.79;54.21
69306;BME280;56427;51.580;4.656;2023-06-14T05:55:43;101557.81;;;22.45;53.56
69306;BME280;56427;51.580;4.656;2023-06-14T05:58:08;101552.75;;;22.14;54.96
69306;BME280;56427;51.580;4.656;2023-06-14T06:00:34;101560.19;;;22.83;53.60
69306;BME280;56427;51.580;4.656;2023-06-14T06:03:00;101562.84;;;22.62;54.63
69306;BME280;56427;51.580;4.656;2023-06-14T06:05:26;101561.13;;;22.32;54.21
69306;BME280;56427;51.580;4.656;2023-06-14T06:07:51;101550.75;;;21.64;55.26
69306;BME280;56427;51.580;4.656;2023-06-14T06:10:18;101558.38;;;22.40;55.99
69306;BME280;56427;51.580;4.656;2023-06-14T06:12:43;101549.63;;;22.25;55.02
69306;BME280;56427;51.580;4.656;2023-06-14T06:15:10;101554.78;;;22.70;54.41
69306;BME280;56427;51.580;4.656;2023-06-14T06:17:38;101551.91;;;22.71;54.57
69306;BME280;56427;51.580;4.656;2023-06-14T06:20:05;101562.56;;;22.35;54.94
69306;BME280;56427;51.580;4.656;2023-06-14T06:22:33;101567.06;;;22.34;55.47
69306;BME280;56427;51.580;4.656;2023-06-14T06:24:59;101567.50;;;22.38;54.78
69306;BME280;56427;51.580;4.656;2023-06-14T06:27:24;101565.47;;;22.83;53.39
69306;BME280;56427;51.580;4.656;2023-06-14T06:29:50;101568.53;;;23.08;53.25
69306;BME280;56427;51.580;4.656;2023-06-14T06:32:17;101559.28;;;22.76;54.42
69306;BME280;56427;51.580;4.656;2023-06-14T06:34:42;101563.13;;;23.58;51.97
69306;BME280;56427;51.580;4.656;2023-06-14T06:37:07;101558.72;;;22.81;53.42
69306;BME280;56427;51.580;4.656;2023-06-14T06:39:33;101566.41;;;23.25;52.84
69306;BME280;56427;51.580;4.656;2023-06-14T06:41:59;101569.97;;;23.39;53.08
69306;BME280;56427;51.580;4.656;2023-06-14T06:44:24;101575.75;;;23.56;51.51
69306;BME280;56427;51.580;4.656;2023-06-14T06:46:50;101573.66;;;23.45;50.94
69306;BME280;56427;51.580;4.656;2023-06-14T06:49:15;101573.31;;;22.70;52.96
69306;BME280;56427;51.580;4.656;2023-06-14T06:51:41;101583.16;;;22.39;54.26
69306;BME280;56427;51.580;4.656;2023-06-14T06:54:10;101581.09;;;23.28;53.18
69306;BME280;56427;51.580;4.656;2023-06-14T06:56:36;101586.91;;;23.45;52.15
69306;BME280;56427;51.580;4.656;2023-06-14T06:59:01;101587.50;;;23.12;53.03
69306;BME280;56427;51.580;4.656;2023-06-14T07:01:27;101595.28;;;22.70;52.19
69306;BME280;56427;51.580;4.656;2023-06-14T07:03:55;101592.75;;;22.62;53.31
69306;BME280;56427;51.580;4.656;2023-06-14T07:06:21;101596.75;;;23.23;52.39
69306;BME280;56427;51.580;4.656;2023-06-14T07:08:46;101600.81;;;23.25;53.18
69306;BME280;56427;51.580;4.656;2023-06-14T07:11:14;101600.91;;;24.22;51.75
69306;BME280;56427;51.580;4.656;2023-06-14T07:13:39;101608.34;;;23.85;52.50
69306;BME280;56427;51.580;4.656;2023-06-14T07:16:05;101612.47;;;24.96;50.68
69306;BME280;56427;51.580;4.656;2023-06-14T07:18:31;101608.38;;;25.20;49.49
69306;BME280;56427;51.580;4.656;2023-06-14T07:20:56;101609.63;;;24.64;49.28
69306;BME280;56427;51.580;4.656;2023-06-14T07:23:22;101610.63;;;24.76;49.29
69306;BME280;56427;51.580;4.656;2023-06-14T07:25:48;101602.47;;;23.61;51.50
69306;BME280;56427;51.580;4.656;2023-06-14T07:28:13;101614.28;;;24.62;50.78
69306;BME280;56427;51.580;4.656;2023-06-14T07:30:39;101616.88;;;24.42;50.61
69306;BME280;56427;51.580;4.656;2023-06-14T07:33:05;101616.56;;;24.78;50.42
69306;BME280;56427;51.580;4.656;2023-06-14T07:35:31;101611.63;;;24.69;48.75
69306;BME280;56427;51.580;4.656;2023-06-14T07:37:56;101608.78;;;24.77;49.42
69306;BME280;56427;51.580;4.656;2023-06-14T07:40:21;101617.09;;;24.47;49.03
69306;BME280;56427;51.580;4.656;2023-06-14T07:42:47;101616.13;;;24.68;48.18
69306;BME280;56427;51.580;4.656;2023-06-14T07:45:13;101612.00;;;24.52;48.91
69306;BME280;56427;51.580;4.656;2023-06-14T07:47:39;101622.06;;;24.64;48.62
69306;BME280;56427;51.580;4.656;2023-06-14T07:50:05;101625.41;;;24.31;48.57
69306;BME280;56427;51.580;4.656;2023-06-14T07:52:30;101626.56;;;24.90;46.99
69306;BME280;56427;51.580;4.656;2023-06-14T07:54:56;101631.19;;;25.75;46.68
69306;BME280;56427;51.580;4.656;2023-06-14T07:57:22;101631.03;;;25.43;45.81
69306;BME280;56427;51.580;4.656;2023-06-14T07:59:48;101630.16;;;25.76;46.98
69306;BME280;56427;51.580;4.656;2023-06-14T08:02:14;101629.91;;;25.97;46.67
69306;BME280;56427;51.580;4.656;2023-06-14T08:04:39;101635.38;;;26.48;44.52
69306;BME280;56427;51.580;4.656;2023-06-14T08:07:05;101618.25;;;25.98;45.17
69306;BME280;56427;51.580;4.656;2023-06-14T08:09:31;101627.50;;;25.82;44.46
69306;BME280;56427;51.580;4.656;2023-06-14T08:11:56;101629.00;;;25.58;44.29
69306;BME280;56427;51.580;4.656;2023-06-14T08:14:22;101631.06;;;25.16;45.92
69306;BME280;56427;51.580;4.656;2023-06-14T08:16:48;101635.13;;;25.59;45.13
69306;BME280;56427;51.580;4.656;2023-06-14T08:19:13;101636.66;;;25.86;43.33
69306;BME280;56427;51.580;4.656;2023-06-14T08:21:39;101636.16;;;25.44;43.80
69306;BME280;56427;51.580;4.656;2023-06-14T08:24:05;101629.06;;;26.03;43.79
69306;BME280;56427;51.580;4.656;2023-06-14T08:26:31;101626.25;;;25.78;43.07
69306;BME280;56427;51.580;4.656;2023-06-14T08:28:57;101627.59;;;25.15;43.36
69306;BME280;56427;51.580;4.656;2023-06-14T08:31:23;101623.09;;;25.49;43.82
69306;BME280;56427;51.580;4.656;2023-06-14T08:33:49;101624.88;;;25.62;43.17
69306;BME280;56427;51.580;4.656;2023-06-14T08:36:15;101627.31;;;25.64;43.22
69306;BME280;56427;51.580;4.656;2023-06-14T08:38:41;101632.09;;;25.35;42.81
69306;BME280;56427;51.580;4.656;2023-06-14T08:41:07;101623.53;;;25.40;43.83
69306;BME280;56427;51.580;4.656;2023-06-14T08:43:33;101635.16;;;24.92;43.82
69306;BME280;56427;51.580;4.656;2023-06-14T08:46:02;101631.03;;;25.43;43.96
69306;BME280;56427;51.580;4.656;2023-06-14T08:48:29;101634.25;;;25.78;43.77
69306;BME280;56427;51.580;4.656;2023-06-14T08:50:59;101636.66;;;26.00;41.37
69306;BME280;56427;51.580;4.656;2023-06-14T08:53:32;101629.91;;;26.36;41.59
69306;BME280;56427;51.580;4.656;2023-06-14T08:56:02;101626.44;;;25.83;41.37
69306;BME280;56427;51.580;4.656;2023-06-14T08:58:33;101623.16;;;26.33;42.23
69306;BME280;56427;51.580;4.656;2023-06-14T09:01:01;101638.72;;;26.36;41.29
69306;BME280;56427;51.580;4.656;2023-06-14T09:03:26;101633.84;;;25.75;42.28
69306;BME280;56427;51.580;4.656;2023-06-14T09:05:58;101632.34;;;26.05;41.74
69306;BME280;56427;51.580;4.656;2023-06-14T09:08:27;101626.69;;;26.91;41.04
69306;BME280;56427;51.580;4.656;2023-06-14T09:10:57;101628.66;;;26.45;41.92
69306;BME280;56427;51.580;4.656;2023-06-14T09:13:22;101636.88;;;26.37;40.04
69306;BME280;56427;51.580;4.656;2023-06-14T09:15:48;101644.56;;;27.09;40.25
69306;BME280;56427;51.580;4.656;2023-06-14T09:18:13;101646.13;;;26.66;40.79
69306;BME280;56427;51.580;4.656;2023-06-14T09:20:39;101646.59;;;26.18;39.89
69306;BME280;56427;51.580;4.656;2023-06-14T09:23:06;101647.34;;;26.32;38.69
69306;BME280;56427;51.580;4.656;2023-06-14T09:25:32;101650.16;;;26.75;39.77
69306;BME280;56427;51.580;4.656;2023-06-14T09:27:58;101656.75;;;25.82;40.99
69306;BME280;56427;51.580;4.656;2023-06-14T09:30:23;101660.03;;;26.30;40.92
69306;BME280;56427;51.580;4.656;2023-06-14T09:32:49;101653.81;;;26.11;40.74
69306;BME280;56427;51.580;4.656;2023-06-14T09:35:17;101658.44;;;26.29;41.36
69306;BME280;56427;51.580;4.656;2023-06-14T09:37:42;101654.88;;;27.30;41.62
69306;BME280;56427;51.580;4.656;2023-06-14T09:40:08;101651.59;;;26.78;38.89
69306;BME280;56427;51.580;4.656;2023-06-14T09:42:35;101660.22;;;26.73;39.81
69306;BME280;56427;51.580;4.656;2023-06-14T09:45:02;101653.56;;;26.89;38.12
69306;BME280;56427;51.580;4.656;2023-06-14T09:47:29;101651.38;;;26.41;37.92
69306;BME280;56427;51.580;4.656;2023-06-14T09:49:54;101662.34;;;27.15;36.16
69306;BME280;56427;51.580;4.656;2023-06-14T09:52:21;101656.50;;;27.06;37.38
69306;BME280;56427;51.580;4.656;2023-06-14T09:54:48;101659.13;;;26.49;37.34
69306;BME280;56427;51.580;4.656;2023-06-14T09:57:22;101654.06;;;27.30;37.58
69306;BME280;56427;51.580;4.656;2023-06-14T09:59:48;101648.75;;;27.23;36.42
69306;BME280;56427;51.580;4.656;2023-06-14T10:02:29;101652.75;;;27.58;36.40
69306;BME280;56427;51.580;4.656;2023-06-14T10:05:05;101651.19;;;27.50;36.79
69306;BME280;56427;51.580;4.656;2023-06-14T10:08:04;101657.09;;;27.08;36.09
69306;BME280;56427;51.580;4.656;2023-06-14T10:10:31;101650.13;;;26.82;38.25
69306;BME280;56427;51.580;4.656;2023-06-14T10:12:57;101648.38;;;26.69;39.79
69306;BME280;56427;51.580;4.656;2023-06-14T10:15:41;101650.94;;;26.83;38.36
69306;BME280;56427;51.580;4.656;2023-06-14T10:18:14;101654.59;;;26.88;38.67
69306;BME280;56427;51.580;4.656;2023-06-14T10:20:55;101635.75;;;27.33;38.19
69306;BME280;56427;51.580;4.656;2023-06-14T10:23:26;101654.03;;;27.55;35.70
69306;BME280;56427;51.580;4.656;2023-06-14T10:25:59;101654.19;;;26.53;35.71
69306;BME280;56427;51.580;4.656;2023-06-14T10:28:25;101646.53;;;27.20;37.58
69306;BME280;56427;51.580;4.656;2023-06-14T10:31:12;101645.84;;;27.50;35.68
69306;BME280;56427;51.580;4.656;2023-06-14T10:33:50;101646.09;;;27.67;35.62
69306;BME280;56427;51.580;4.656;2023-06-14T10:39:06;101645.75;;;27.63;36.07
69306;BME280;56427;51.580;4.656;2023-06-14T10:41:40;101644.09;;;27.44;36.38
69306;BME280;56427;51.580;4.656;2023-06-14T10:46:38;101645.13;;;27.43;35.15
69306;BME280;56427;51.580;4.656;2023-06-14T10:49:03;101650.59;;;27.29;34.55
69306;BME280;56427;51.580;4.656;2023-06-14T10:51:38;101646.63;;;28.13;34.89
69306;BME280;56427;51.580;4.656;2023-06-14T10:54:14;101635.84;;;26.76;34.86
69306;BME280;56427;51.580;4.656;2023-06-14T10:56:50;101647.63;;;27.38;35.59
69306;BME280;56427;51.580;4.656;2023-06-14T10:59:16;101650.38;;;26.42;34.35
69306;BME280;56427;51.580;4.656;2023-06-14T11:04:51;101651.50;;;26.53;33.72
69306;BME280;56427;51.580;4.656;2023-06-14T11:07:40;101651.19;;;26.74;33.58
69306;BME280;56427;51.580;4.656;2023-06-14T11:12:55;101641.94;;;27.34;33.40
69306;BME280;56427;51.580;4.656;2023-06-14T11:15:31;101638.97;;;26.92;33.62
69306;BME280;56427;51.580;4.656;2023-06-14T11:17:57;101638.38;;;27.15;34.70
69306;BME280;56427;51.580;4.656;2023-06-14T11:20:30;101634.06;;;27.76;34.79
69306;BME280;56427;51.580;4.656;2023-06-14T11:22:56;101632.81;;;27.42;34.14
69306;BME280;56427;51.580;4.656;2023-06-14T11:25:22;101634.53;;;27.73;32.39
69306;BME280;56427;51.580;4.656;2023-06-14T11:27:49;101636.59;;;27.89;32.96
69306;BME280;56427;51.580;4.656;2023-06-14T11:30:15;101643.34;;;27.11;32.56
69306;BME280;56427;51.580;4.656;2023-06-14T11:32:41;101628.88;;;27.81;32.99
69306;BME280;56427;51.580;4.656;2023-06-14T11:35:08;101640.78;;;26.73;31.50
69306;BME280;56427;51.580;4.656;2023-06-14T11:37:36;101631.72;;;27.06;31.95
69306;BME280;56427;51.580;4.656;2023-06-14T11:40:03;101635.66;;;27.47;31.15
69306;BME280;56427;51.580;4.656;2023-06-14T11:42:33;101633.88;;;27.41;32.44
69306;BME280;56427;51.580;4.656;2023-06-14T11:44:58;101628.72;;;27.21;32.78
69306;BME280;56427;51.580;4.656;2023-06-14T11:47:24;101628.81;;;27.69;32.05
69306;BME280;56427;51.580;4.656;2023-06-14T11:49:49;101645.75;;;26.94;32.57
69306;BME280;56427;51.580;4.656;2023-06-14T11:52:17;101633.00;;;27.47;33.61
69306;BME280;56427;51.580;4.656;2023-06-14T11:54:43;101643.66;;;28.33;31.22
69306;BME280;56427;51.580;4.656;2023-06-14T11:57:09;101628.81;;;27.69;32.60
69306;BME280;56427;51.580;4.656;2023-06-14T11:59:39;101627.50;;;28.58;31.48
69306;BME280;56427;51.580;4.656;2023-06-14T12:02:05;101627.06;;;28.00;31.66
69306;BME280;56427;51.580;4.656;2023-06-14T12:04:32;101636.09;;;27.62;30.85
69306;BME280;56427;51.580;4.656;2023-06-14T12:07:11;101625.28;;;27.39;31.12
69306;BME280;56427;51.580;4.656;2023-06-14T12:12:26;101630.31;;;27.22;32.04
69306;BME280;56427;51.580;4.656;2023-06-14T12:14:52;101630.78;;;26.68;32.09
69306;BME280;56427;51.580;4.656;2023-06-14T12:17:18;101634.56;;;26.79;32.83
69306;BME280;56427;51.580;4.656;2023-06-14T12:19:45;101629.44;;;27.28;33.28
69306;BME280;56427;51.580;4.656;2023-06-14T12:22:12;101630.63;;;27.39;32.81
69306;BME280;56427;51.580;4.656;2023-06-14T12:24:38;101634.53;;;26.86;33.13
69306;BME280;56427;51.580;4.656;2023-06-14T12:27:05;101618.09;;;27.39;32.78
69306;BME280;56427;51.580;4.656;2023-06-14T12:29:31;101632.53;;;27.06;31.93
69306;BME280;56427;51.580;4.656;2023-06-14T12:31:57;101622.53;;;26.76;33.31
69306;BME280;56427;51.580;4.656;2023-06-14T12:34:23;101635.88;;;27.45;32.04
69306;BME280;56427;51.580;4.656;2023-06-14T12:36:53;101626.75;;;27.53;32.18
69306;BME280;56427;51.580;4.656;2023-06-14T12:39:19;101631.94;;;27.04;31.35
69306;BME280;56427;51.580;4.656;2023-06-14T12:41:44;101648.56;;;26.99;32.30
69306;BME280;56427;51.580;4.656;2023-06-14T12:44:13;101638.44;;;27.08;32.43
69306;BME280;56427;51.580;4.656;2023-06-14T12:46:40;101638.59;;;26.88;32.01
69306;BME280;56427;51.580;4.656;2023-06-14T12:49:08;101617.78;;;26.47;32.23
69306;BME280;56427;51.580;4.656;2023-06-14T12:51:35;101639.25;;;26.52;32.55
69306;BME280;56427;51.580;4.656;2023-06-14T12:54:03;101640.34;;;27.01;32.27
69306;BME280;56427;51.580;4.656;2023-06-14T12:56:29;101629.78;;;27.13;31.37
69306;BME280;56427;51.580;4.656;2023-06-14T12:58:55;101636.59;;;27.09;30.65
69306;BME280;56427;51.580;4.656;2023-06-14T13:01:20;101635.63;;;27.84;31.44
69306;BME280;56427;51.580;4.656;2023-06-14T13:03:47;101647.28;;;28.08;32.14
69306;BME280;56427;51.580;4.656;2023-06-14T13:06:13;101654.22;;;28.09;32.58